Time;durP1;ratioP1;P1;durP2;ratioP2;P2;SDS_P1;SDS_P2;PMS_P1;PMS_P2;Temp;Humidity;BMP_temperature;BMP_pressure;BME280_temperature;BME280_humidity;BME280_pressure;Samples;Min_cycle;Max_cycle;Signal;HPM_P1;HPM_P2
2023/07/12 00:00:21;;;;;;;10.10;4.70;;;;;;;-144.73;99.97;54194.25;5011282;28;20032;-72
2023/07/12 00:02:47;;;;;;;13.98;4.40;;;;;;;-144.73;99.93;54200.41;5020550;28;20030;-72
2023/07/12 00:05:12;;;;;;;15.50;3.85;;;;;;;-144.73;100.00;54186.03;5011065;28;20035;-72
2023/07/12 00:07:38;;;;;;;13.45;4.25;;;;;;;-144.73;99.85;54210.66;5009796;28;20444;-72
2023/07/12 00:10:13;;;;;;;8.95;4.10;;;;;;;-144.73;99.61;54198.34;5011900;28;20041;-72
2023/07/12 00:12:39;;;;;;;8.75;3.97;;;;;;;-144.73;98.86;54216.81;5023992;28;20037;-72
2023/07/12 00:15:05;;;;;;;10.35;4.00;;;;;;;-144.73;96.83;54235.28;5011016;28;20080;-72
2023/07/12 00:17:30;;;;;;;15.77;3.90;;;;;;;-144.73;96.08;54227.09;5028411;28;20112;-72
2023/07/12 00:19:56;;;;;;;11.52;4.15;;;;;;;-144.73;95.47;54342.03;5028559;28;20133;-72
2023/07/12 00:22:23;;;;;;;12.20;4.20;;;;;;;-144.73;94.83;54251.72;5010751;28;20098;-72
2023/07/12 00:24:48;;;;;;;10.45;4.70;;;;;;;-144.73;97.47;54227.09;5028643;28;20060;-72
2023/07/12 00:27:13;;;;;;;10.57;4.80;;;;;;;-144.73;100.00;54247.59;5010782;28;20041;-72
2023/07/12 00:29:39;;;;;;;13.35;4.10;;;;;;;-144.73;100.00;54194.25;5010720;28;20041;-72
2023/07/12 00:32:05;;;;;;;11.70;4.65;;;;;;;-144.73;100.00;54206.56;5010060;28;20037;-73
2023/07/12 00:34:30;;;;;;;9.45;4.25;;;;;;;-144.73;100.00;54245.56;5010199;28;20034;-72
2023/07/12 00:36:55;;;;;;;11.23;4.72;;;;;;;-144.73;100.00;54231.19;5028399;28;20017;-73
2023/07/12 00:39:20;;;;;;;19.55;5.32;;;;;;;-144.73;100.00;54239.41;5028400;28;20042;-72
2023/07/12 00:42:04;;;;;;;80.50;11.25;;;;;;;-144.73;100.00;54239.41;5028688;28;20017;-79
2023/07/12 00:44:35;;;;;;;15.15;6.85;;;;;;;-144.73;100.00;54239.41;5013238;28;20539;-77
2023/07/12 00:47:01;;;;;;;18.50;7.28;;;;;;;-144.73;100.00;54227.09;5011763;28;20017;-76
2023/07/12 00:49:26;;;;;;;22.73;6.60;;;;;;;-144.73;100.00;54259.91;5011975;28;20034;-77
2023/07/12 00:52:06;;;;;;;18.65;6.93;;;;;;;-144.73;100.00;54243.50;5011211;28;20478;-75
2023/07/12 00:54:55;;;;;;;20.92;6.95;;;;;;;-144.73;100.00;54206.56;5029903;28;20033;-75
2023/07/12 00:57:22;;;;;;;22.63;7.88;;;;;;;-144.73;100.00;54255.81;5005939;28;20045;-77
2023/07/12 00:59:48;;;;;;;19.83;7.63;;;;;;;-144.73;100.00;54227.09;5012857;28;20024;-74
2023/07/12 01:02:15;;;;;;;21.95;8.20;;;;;;;-144.73;100.00;54247.59;5011958;28;20017;-74
2023/07/12 01:04:49;;;;;;;21.48;8.73;;;;;;;-144.73;100.00;54276.34;5011388;28;20036;-74
2023/07/12 01:07:17;;;;;;;19.33;7.82;;;;;;;-144.73;100.00;54288.66;5011531;28;20026;-75
2023/07/12 01:09:43;;;;;;;27.83;8.25;;;;;;;-144.73;100.00;54235.28;5009913;28;20021;-74
2023/07/12 01:12:09;;;;;;;15.00;6.40;;;;;;;-144.73;100.00;54313.28;5011263;28;20029;-74
2023/07/12 01:14:35;;;;;;;16.60;7.03;;;;;;;-144.73;100.00;54342.03;5028730;28;20083;-76
2023/07/12 01:17:05;;;;;;;21.15;7.85;;;;;;;-144.73;100.00;54235.28;5032271;28;20017;-77
2023/07/12 01:19:32;;;;;;;24.35;8.65;;;;;;;-144.73;100.00;54251.72;5014485;28;20083;-77
2023/07/12 01:21:58;;;;;;;18.33;8.15;;;;;;;-144.73;100.00;54296.88;5010751;28;20049;-76
2023/07/12 01:24:27;;;;;;;18.80;7.82;;;;;;;-144.73;100.00;54276.34;5013819;28;20115;-76
2023/07/12 01:26:57;;;;;;;12.98;7.10;;;;;;;-144.73;100.00;54259.91;5016899;28;20466;-76
2023/07/12 01:29:23;;;;;;;20.52;8.30;;;;;;;-144.73;100.00;54259.91;5014055;28;20034;-75
2023/07/12 01:31:50;;;;;;;17.02;7.20;;;;;;;-144.73;100.00;54235.28;5016070;28;20076;-75
2023/07/12 01:34:17;;;;;;;15.02;7.22;;;;;;;-144.73;100.00;54253.75;5015475;28;20029;-75
2023/07/12 01:36:42;;;;;;;15.05;7.45;;;;;;;-144.73;100.00;54294.81;5014763;28;20037;-75
2023/07/12 01:39:08;;;;;;;19.42;7.32;;;;;;;-144.73;100.00;54276.34;5014443;28;20064;-75
2023/07/12 01:41:34;;;;;;;18.13;6.63;;;;;;;-144.73;100.00;54296.88;5014337;28;20028;-76
2023/07/12 01:43:59;;;;;;;14.90;6.28;;;;;;;-144.73;100.00;54241.44;5013385;28;20072;-74
2023/07/12 01:46:25;;;;;;;19.27;7.57;;;;;;;-144.73;100.00;54280.44;5014038;28;20021;-74
2023/07/12 01:48:51;;;;;;;16.73;7.20;;;;;;;-144.73;100.00;54251.72;5014044;28;20029;-74
2023/07/12 01:51:18;;;;;;;16.88;5.93;;;;;;;-144.73;100.00;54288.66;5031256;28;20013;-74
2023/07/12 01:53:43;;;;;;;18.02;6.72;;;;;;;-144.73;100.00;54255.81;5027698;28;20021;-74
2023/07/12 01:56:12;;;;;;;13.32;6.63;;;;;;;-144.73;100.00;54276.34;5014071;28;20433;-75
2023/07/12 01:58:37;;;;;;;20.42;6.82;;;;;;;-144.73;100.00;54259.91;5015331;28;20553;-78
2023/07/12 02:01:03;;;;;;;12.50;5.90;;;;;;;-144.73;100.00;54235.28;5028064;28;20021;-76
2023/07/12 02:03:29;;;;;;;40.72;7.15;;;;;;;-144.73;100.00;54300.97;5018793;28;20060;-76
2023/07/12 02:05:55;;;;;;;23.02;8.05;;;;;;;-144.73;100.00;54292.75;5014230;28;20026;-74
2023/07/12 02:08:21;;;;;;;15.25;6.78;;;;;;;-144.73;100.00;54296.88;5032188;28;20032;-74
2023/07/12 02:10:47;;;;;;;16.52;5.90;;;;;;;-144.73;100.00;54255.81;5031077;28;20022;-73
2023/07/12 02:13:13;;;;;;;20.60;5.85;;;;;;;-144.73;100.00;54292.75;5014305;28;20025;-73
2023/07/12 02:15:38;;;;;;;9.35;5.05;;;;;;;-144.73;100.00;54280.44;5019744;28;20036;-73
2023/07/12 02:18:04;;;;;;;10.45;5.03;;;;;;;-144.73;100.00;54288.66;5018032;28;20040;-74
2023/07/12 02:20:30;;;;;;;7.43;4.35;;;;;;;-144.73;100.00;54259.91;5015651;28;20014;-73
2023/07/12 02:22:55;;;;;;;13.60;4.45;;;;;;;-144.73;100.00;54313.28;5014391;28;20075;-74
2023/07/12 02:25:21;;;;;;;14.60;4.20;;;;;;;-144.73;100.00;54292.75;5014523;28;20025;-74
2023/07/12 02:27:47;;;;;;;13.13;4.47;;;;;;;-144.73;100.00;54303.03;5009236;28;20079;-75
2023/07/12 02:30:19;;;;;;;4.82;3.70;;;;;;;-144.73;100.00;54288.66;5031837;28;20021;-75
2023/07/12 02:32:45;;;;;;;8.93;3.95;;;;;;;-144.73;100.00;54284.56;5013284;28;20064;-75
2023/07/12 02:35:11;;;;;;;9.23;4.30;;;;;;;-144.73;100.00;54231.19;5012721;28;20029;-75
2023/07/12 02:37:37;;;;;;;8.30;4.18;;;;;;;-144.73;100.00;54300.97;5012650;28;20041;-76
2023/07/12 02:40:04;;;;;;;8.93;4.40;;;;;;;-144.73;100.00;54311.22;5012660;28;20026;-76
2023/07/12 02:42:30;;;;;;;8.90;3.42;;;;;;;-144.73;100.00;54317.38;5012133;28;20033;-79
2023/07/12 02:44:55;;;;;;;14.40;3.65;;;;;;;-144.73;100.00;54288.66;5012286;28;20390;-76
2023/07/12 02:47:21;;;;;;;7.18;3.50;;;;;;;-144.73;100.00;54309.19;5012986;28;20020;-76
2023/07/12 02:49:46;;;;;;;8.13;3.35;;;;;;;-144.73;100.00;54243.50;5012286;28;20014;-75
2023/07/12 02:52:12;;;;;;;9.45;3.90;;;;;;;-144.73;100.00;54311.22;5011756;28;20028;-77
2023/07/12 02:54:37;;;;;;;12.07;3.85;;;;;;;-144.73;100.00;54284.56;5030219;28;20028;-77
2023/07/12 02:57:03;;;;;;;7.90;3.20;;;;;;;-144.73;100.00;54305.06;5013109;28;20029;-77
2023/07/12 02:59:29;;;;;;;6.75;3.25;;;;;;;-144.73;100.00;54284.56;5013553;28;20029;-77
2023/07/12 03:01:55;;;;;;;6.53;4.10;;;;;;;-144.73;100.00;54300.97;5015960;28;20021;-77
2023/07/12 03:04:21;;;;;;;10.23;3.38;;;;;;;-144.73;100.00;54300.97;5014992;28;20041;-78
2023/07/12 03:06:47;;;;;;;10.00;4.05;;;;;;;-144.73;100.00;54280.44;5014162;28;20489;-77
2023/07/12 03:09:13;;;;;;;9.40;4.35;;;;;;;-144.73;100.00;54309.19;5012823;28;20034;-77
2023/07/12 03:11:38;;;;;;;8.65;4.32;;;;;;;-144.73;100.00;54296.88;5014867;28;20044;-77
2023/07/12 03:14:04;;;;;;;11.18;3.80;;;;;;;-144.73;100.00;54276.34;5013580;28;20029;-77
2023/07/12 03:16:31;;;;;;;8.75;3.92;;;;;;;-144.73;100.00;54309.19;5015357;28;20108;-77
2023/07/12 03:18:58;;;;;;;9.00;4.18;;;;;;;-144.73;100.00;54253.75;5034136;28;20030;-78
2023/07/12 03:21:25;;;;;;;8.90;4.60;;;;;;;-144.73;100.00;54278.41;5016306;28;20048;-78
2023/07/12 03:23:50;;;;;;;6.72;4.15;;;;;;;-144.73;100.00;54268.13;5015368;28;20061;-78
2023/07/12 03:26:16;;;;;;;8.48;4.03;;;;;;;-144.73;100.00;54257.88;5011698;28;20099;-79
2023/07/12 03:28:41;;;;;;;13.50;5.07;;;;;;;-144.73;100.00;54305.06;5012171;28;20033;-78
2023/07/12 03:31:12;;;;;;;5.65;3.60;;;;;;;-144.73;100.00;54251.72;5014561;28;20056;-78
2023/07/12 03:33:38;;;;;;;9.20;4.30;;;;;;;-144.73;100.00;54296.88;5011236;28;20045;-78
2023/07/12 03:36:04;;;;;;;9.05;4.70;;;;;;;-144.73;100.00;54292.75;5014151;28;20068;-78
2023/07/12 03:38:30;;;;;;;17.27;4.70;;;;;;;-144.73;100.00;54342.03;5014468;28;20036;-78
2023/07/12 03:40:58;;;;;;;9.90;3.78;;;;;;;-144.73;100.00;54282.50;5003337;28;20028;-78
2023/07/12 03:43:24;;;;;;;7.30;3.70;;;;;;;-144.73;100.00;54276.34;5015950;28;20032;-78
2023/07/12 03:45:49;;;;;;;14.82;4.63;;;;;;;-144.73;100.00;54296.88;5018546;28;20029;-78
2023/07/12 03:48:15;;;;;;;11.23;4.22;;;;;;;-144.73;100.00;54276.34;5005731;28;20033;-77
2023/07/12 03:50:42;;;;;;;7.90;3.80;;;;;;;-144.73;100.00;54284.56;5012544;28;20029;-78
2023/07/12 03:53:08;;;;;;;9.85;4.68;;;;;;;-144.73;100.00;54305.06;5015667;28;20102;-79
2023/07/12 03:55:39;;;;;;;8.65;4.38;;;;;;;-144.73;100.00;54313.28;5014266;28;20041;-79
2023/07/12 03:58:04;;;;;;;11.52;4.03;;;;;;;-144.73;100.00;54317.38;5013649;28;20041;-78
2023/07/12 04:00:30;;;;;;;9.00;3.92;;;;;;;-144.73;100.00;54288.66;5012987;28;20017;-79
2023/07/12 04:02:55;;;;;;;10.30;4.18;;;;;;;-144.73;100.00;54276.34;5024113;28;20033;-79
2023/07/12 04:05:20;;;;;;;8.18;3.83;;;;;;;-144.73;100.00;54315.34;5011369;28;20028;-78
2023/07/12 04:07:46;;;;;;;8.00;3.85;;;;;;;-144.73;100.00;54276.34;5011656;28;20030;-78
2023/07/12 04:10:11;;;;;;;8.48;4.40;;;;;;;-144.73;100.00;54325.59;5010811;28;20390;-77
2023/07/12 04:12:37;;;;;;;10.10;4.20;;;;;;;-144.73;100.00;54305.06;5010007;28;20037;-77
2023/07/12 04:15:03;;;;;;;8.02;4.13;;;;;;;-144.73;100.00;54259.91;5010772;28;20168;-78
2023/07/12 04:17:29;;;;;;;7.80;4.68;;;;;;;-144.73;100.00;54276.34;5011550;28;20106;-78
2023/07/12 04:19:54;;;;;;;11.82;4.18;;;;;;;-144.73;100.00;54292.75;5011273;28;20104;-77
2023/07/12 04:22:20;;;;;;;6.07;3.92;;;;;;;-144.73;100.00;54296.88;5006414;28;20049;-79
2023/07/12 04:24:52;;;;;;;18.08;4.80;;;;;;;-144.73;100.00;54329.72;5011617;28;20036;-78
2023/07/12 04:27:18;;;;;;;7.47;4.40;;;;;;;-144.73;100.00;54284.56;5010996;28;20028;-77
2023/07/12 04:29:44;;;;;;;9.30;3.83;;;;;;;-144.73;100.00;54311.22;5011166;28;20022;-77
2023/07/12 04:32:10;;;;;;;6.45;3.97;;;;;;;-144.73;100.00;54276.34;5006703;28;20021;-77
2023/07/12 04:34:35;;;;;;;9.30;4.28;;;;;;;-144.73;100.00;54325.59;5011612;28;20022;-79
2023/07/12 04:37:01;;;;;;;13.23;4.28;;;;;;;-144.73;100.00;54313.28;5010772;28;20017;-77
2023/07/12 04:39:26;;;;;;;12.23;4.65;;;;;;;-144.73;100.00;54280.44;5009896;28;20400;-77
2023/07/12 04:41:51;;;;;;;8.02;4.30;;;;;;;-144.73;100.00;54337.91;5010651;28;20095;-77
2023/07/12 04:44:17;;;;;;;12.77;4.90;;;;;;;-144.73;100.00;54286.59;5008481;28;20143;-77
2023/07/12 04:46:42;;;;;;;8.88;4.75;;;;;;;-144.73;100.00;54313.28;5011496;28;20477;-77
2023/07/12 04:49:08;;;;;;;7.82;5.13;;;;;;;-144.73;100.00;54309.19;5010317;28;20542;-76
2023/07/12 04:51:39;;;;;;;13.10;5.00;;;;;;;-144.73;100.00;54284.56;5010855;28;20018;-77
2023/07/12 04:54:04;;;;;;;13.30;5.47;;;;;;;-144.73;100.00;54329.72;5007023;28;20030;-77
2023/07/12 04:56:30;;;;;;;11.20;5.75;;;;;;;-144.73;100.00;54342.03;5018200;28;20278;-77
2023/07/12 04:58:56;;;;;;;12.57;6.13;;;;;;;-144.73;100.00;54300.97;5008725;28;20057;-76
2023/07/12 05:01:21;;;;;;;15.35;6.07;;;;;;;-144.73;100.00;54296.88;5015081;28;20070;-76
2023/07/12 05:03:47;;;;;;;11.57;5.00;;;;;;;-144.73;100.00;54317.38;5029179;28;20029;-76
2023/07/12 05:06:13;;;;;;;12.80;5.50;;;;;;;-144.73;100.00;54292.75;5022736;28;20076;-76
2023/07/12 05:08:39;;;;;;;14.27;6.28;;;;;;;-144.73;100.00;54313.28;5013305;28;20026;-76
2023/07/12 05:11:04;;;;;;;12.32;4.25;;;;;;;-144.73;100.00;54284.56;5027781;28;20029;-77
2023/07/12 05:13:30;;;;;;;10.55;4.75;;;;;;;-144.73;100.00;54309.19;5014161;28;20030;-76
2023/07/12 05:15:56;;;;;;;17.13;5.53;;;;;;;-144.73;100.00;54325.59;5014428;28;20374;-77
2023/07/12 05:18:22;;;;;;;11.32;5.13;;;;;;;-144.73;100.00;54360.50;5032944;28;20064;-76
2023/07/12 05:20:49;;;;;;;9.68;4.07;;;;;;;-144.73;100.00;54307.13;5016497;28;20084;-77
2023/07/12 05:23:15;;;;;;;10.75;4.38;;;;;;;-144.73;100.00;54321.50;5015230;28;20045;-77
2023/07/12 05:25:48;;;;;;;17.15;5.40;;;;;;;-144.73;100.00;54309.19;5017065;28;20079;-76
2023/07/12 05:28:14;;;;;;;16.83;4.85;;;;;;;-144.73;100.00;54305.06;5016451;28;20343;-76
2023/07/12 05:30:40;;;;;;;9.90;4.00;;;;;;;-144.73;100.00;54319.44;5017073;28;20029;-75
2023/07/12 05:33:05;;;;;;;11.10;3.30;;;;;;;-144.73;100.00;54288.66;5015740;28;20033;-76
2023/07/12 05:35:31;;;;;;;4.88;3.28;;;;;;;-144.73;100.00;54325.59;5016561;28;20024;-76
2023/07/12 05:37:56;;;;;;;10.18;3.50;;;;;;;-144.73;100.00;54342.03;5016821;28;20029;-76
2023/07/12 05:40:22;;;;;;;7.38;3.70;;;;;;;-144.73;100.00;54329.72;5016673;28;20029;-76
2023/07/12 05:42:50;;;;;;;9.63;3.97;;;;;;;-144.73;100.00;54307.13;5013133;28;20037;-75
2023/07/12 05:45:15;;;;;;;6.57;3.85;;;;;;;-144.73;100.00;54344.06;5013380;28;20021;-75
2023/07/12 05:47:47;;;;;;;9.15;3.95;;;;;;;-144.73;100.00;54288.66;5013148;28;20414;-74
2023/07/12 05:50:14;;;;;;;10.05;4.75;;;;;;;-144.73;100.00;54374.84;5013916;28;20017;-75
2023/07/12 05:52:40;;;;;;;10.68;4.13;;;;;;;-144.73;100.00;54323.53;5015626;28;20033;-75
2023/07/12 05:55:07;;;;;;;9.15;4.00;;;;;;;-144.73;100.00;54321.50;5016196;28;20025;-76
2023/07/12 05:57:32;;;;;;;8.20;3.72;;;;;;;-144.73;100.00;54333.81;5016240;28;20033;-77
2023/07/12 06:00:00;;;;;;;9.70;4.78;;;;;;;-144.73;100.00;54292.75;5017060;28;20025;-77
2023/07/12 06:02:25;;;;;;;11.40;4.10;;;;;;;-144.73;100.00;54346.13;5016132;28;20128;-74
2023/07/12 06:04:50;;;;;;;11.70;4.32;;;;;;;-144.73;100.00;54317.38;5016403;28;20120;-77
2023/07/12 06:07:16;;;;;;;6.97;3.88;;;;;;;-144.73;100.00;54309.19;5012845;28;20026;-75
2023/07/12 06:09:41;;;;;;;7.38;4.35;;;;;;;-144.73;100.00;54313.28;5010664;28;20056;-75
2023/07/12 06:12:07;;;;;;;10.93;4.30;;;;;;;-144.73;100.00;54346.13;5012102;28;20029;-76
2023/07/12 06:14:32;;;;;;;12.50;3.85;;;;;;;-144.73;100.00;54300.97;5012175;28;20037;-75
2023/07/12 06:16:58;;;;;;;10.23;4.05;;;;;;;-144.73;100.00;54329.72;5013009;28;20052;-75
2023/07/12 06:19:23;;;;;;;9.70;3.47;;;;;;;-144.73;100.00;54337.91;5011653;28;20041;-75
2023/07/12 06:21:48;;;;;;;11.55;4.35;;;;;;;-144.73;100.00;54305.06;5013101;28;20028;-75
2023/07/12 06:24:14;;;;;;;8.13;3.65;;;;;;;-144.73;100.00;54331.75;5011185;28;20475;-75
2023/07/12 06:26:39;;;;;;;12.18;3.95;;;;;;;-144.73;100.00;54284.56;5012228;28;20041;-73
2023/07/12 06:29:04;;;;;;;6.88;4.10;;;;;;;-144.73;100.00;54300.97;5012279;28;20048;-76
2023/07/12 06:31:30;;;;;;;7.53;3.25;;;;;;;-144.73;100.00;54317.38;5029252;28;20132;-74
2023/07/12 06:34:02;;;;;;;6.45;3.90;;;;;;;-144.73;100.00;54342.03;5006059;28;20180;-76
2023/07/12 06:36:27;;;;;;;12.50;4.15;;;;;;;-144.73;100.00;54333.81;5030355;28;20032;-76
2023/07/12 06:38:53;;;;;;;8.23;3.30;;;;;;;-144.73;100.00;54350.22;5012397;28;21354;-75
2023/07/12 06:41:18;;;;;;;12.32;4.00;;;;;;;-144.73;100.00;54329.72;5012814;28;20036;-74
2023/07/12 06:43:44;;;;;;;8.50;3.60;;;;;;;-144.73;100.00;54325.59;5010661;28;20033;-74
2023/07/12 06:46:09;;;;;;;7.25;3.85;;;;;;;-144.73;100.00;54311.22;5012217;28;20036;-75
2023/07/12 06:48:34;;;;;;;10.00;3.90;;;;;;;-144.73;100.00;54317.38;5008797;28;20030;-74
2023/07/12 06:51:00;;;;;;;10.13;4.00;;;;;;;-144.73;100.00;54292.75;5013698;28;20083;-73
2023/07/12 06:53:26;;;;;;;10.32;5.10;;;;;;;-144.73;100.00;54317.38;5010402;28;20030;-73
2023/07/12 06:55:52;;;;;;;5.95;2.95;;;;;;;-144.73;100.00;54325.59;5012248;28;20025;-74
2023/07/12 06:58:17;;;;;;;6.60;3.58;;;;;;;-144.73;100.00;54313.28;5012526;28;20034;-73
2023/07/12 07:00:44;;;;;;;6.95;3.60;;;;;;;-144.73;100.00;54321.50;5012839;28;20025;-73
2023/07/12 07:03:11;;;;;;;7.00;3.28;;;;;;;-144.73;100.00;54321.50;5011534;28;20589;-73
2023/07/12 07:05:38;;;;;;;9.57;3.53;;;;;;;-144.73;100.00;54321.50;5012463;28;20128;-73
2023/07/12 07:08:04;;;;;;;3.85;2.47;;;;;;;-144.73;100.00;54309.19;5025213;28;20030;-73
2023/07/12 07:10:29;;;;;;;6.82;2.92;;;;;;;-144.73;100.00;54354.34;5008424;28;20021;-72
2023/07/12 07:12:55;;;;;;;8.60;3.28;;;;;;;-144.73;100.00;54342.03;5007657;28;20026;-73
2023/07/12 07:15:20;;;;;;;6.40;2.90;;;;;;;-144.73;100.00;54337.91;5010047;28;20116;-72
2023/07/12 07:17:46;;;;;;;10.30;3.50;;;;;;;-144.73;100.00;54317.38;5010760;28;20033;-72
2023/07/12 07:20:11;;;;;;;5.55;3.80;;;;;;;-144.73;100.00;54305.06;5029760;28;20028;-73
2023/07/12 07:22:37;;;;;;;7.70;2.90;;;;;;;-144.73;100.00;54337.91;5009702;28;20042;-73
2023/07/12 07:25:02;;;;;;;6.70;2.80;;;;;;;-144.73;100.00;54309.19;5011822;28;20025;-72
2023/07/12 07:27:29;;;;;;;5.78;2.80;;;;;;;-144.73;100.00;54309.19;5003697;28;20033;-72
2023/07/12 07:29:55;;;;;;;6.30;2.85;;;;;;;-144.73;100.00;54337.91;5007567;28;20036;-73
2023/07/12 07:32:20;;;;;;;11.35;3.22;;;;;;;-144.73;100.00;54342.03;5006668;28;20030;-73
2023/07/12 07:34:46;;;;;;;6.07;2.80;;;;;;;-144.73;100.00;54356.38;5010177;28;20033;-73
2023/07/12 07:37:12;;;;;;;6.18;3.45;;;;;;;-144.73;100.00;54325.59;5007677;28;20435;-73
2023/07/12 07:39:37;;;;;;;3.92;2.45;;;;;;;-144.73;100.00;54296.88;5010733;28;20529;-72
2023/07/12 07:42:03;;;;;;;5.90;2.30;;;;;;;-144.73;100.00;54321.50;5030452;28;20054;-72
2023/07/12 07:44:28;;;;;;;5.70;2.60;;;;;;;-144.73;100.00;54358.44;5011831;28;20045;-73
2023/07/12 07:46:54;;;;;;;5.60;2.47;;;;;;;-144.73;100.00;54335.88;5032918;28;20075;-72
2023/07/12 07:49:19;;;;;;;9.02;2.30;;;;;;;-144.73;100.00;54317.38;5018175;28;20281;-73
2023/07/12 07:51:44;;;;;;;6.05;2.63;;;;;;;-144.73;100.00;54333.81;5034971;28;20033;-72
2023/07/12 07:54:10;;;;;;;9.50;2.78;;;;;;;-144.73;100.00;54290.72;5015913;28;20045;-72
2023/07/12 07:56:35;;;;;;;7.20;3.13;;;;;;;-144.73;100.00;54307.13;5016502;28;20068;-72
2023/07/12 07:59:00;;;;;;;7.43;2.80;;;;;;;-144.73;100.00;54296.88;5017959;28;20056;-75
2023/07/12 08:01:26;;;;;;;6.15;2.72;;;;;;;-144.73;100.00;54317.38;5035279;28;20034;-72
2023/07/12 08:03:51;;;;;;;6.88;2.72;;;;;;;-144.73;100.00;54309.19;5017318;28;20037;-72
2023/07/12 08:06:17;;;;;;;8.38;3.35;;;;;;;-144.73;100.00;54300.97;5036916;28;20041;-72
2023/07/12 08:08:42;;;;;;;10.40;2.92;;;;;;;-144.73;100.00;54288.66;5016974;28;20037;-73
2023/07/12 08:11:08;;;;;;;8.25;2.60;;;;;;;-144.73;100.00;54317.38;5017345;28;20029;-72
2023/07/12 08:13:34;;;;;;;4.95;2.35;;;;;;;-144.73;100.00;54309.19;5015358;28;20037;-72
2023/07/12 08:16:00;;;;;;;11.18;3.00;;;;;;;-144.73;100.00;54284.56;5018490;28;20025;-72
2023/07/12 08:18:25;;;;;;;6.43;2.42;;;;;;;-144.73;100.00;54298.91;5035021;28;20048;-71
2023/07/12 08:20:54;;;;;;;8.80;3.05;;;;;;;-144.73;100.00;54288.66;5017134;28;20030;-73
2023/07/12 08:23:19;;;;;;;7.43;2.85;;;;;;;-144.73;100.00;54346.13;5034263;28;20049;-72
2023/07/12 08:25:45;;;;;;;6.20;2.05;;;;;;;-144.73;100.00;54366.66;5015447;28;20092;-71
2023/07/12 08:28:10;;;;;;;5.55;2.22;;;;;;;-144.73;100.00;54333.81;5016710;28;20045;-72
2023/07/12 08:30:36;;;;;;;8.73;2.60;;;;;;;-144.73;100.00;54303.03;5016128;28;20025;-72
2023/07/12 08:33:01;;;;;;;8.13;2.20;;;;;;;-144.73;100.00;54311.22;5034633;28;20029;-71
2023/07/12 08:35:26;;;;;;;13.80;3.10;;;;;;;-144.73;100.00;54292.75;5013707;28;20051;-71
2023/07/12 08:37:52;;;;;;;15.20;3.78;;;;;;;-144.73;100.00;54255.81;5032076;28;20052;-71
2023/07/12 08:40:17;;;;;;;7.28;2.47;;;;;;;-144.73;100.00;54305.06;5015294;28;20104;-71
2023/07/12 08:42:44;;;;;;;8.15;2.45;;;;;;;-144.73;100.00;54305.06;5032153;28;20036;-71
2023/07/12 08:45:21;;;;;;;6.38;2.35;;;;;;;-144.73;100.00;54286.59;5017709;28;20025;-71
2023/07/12 08:47:48;;;;;;;9.65;2.90;;;;;;;-144.73;100.00;54321.50;5034231;28;20034;-71
2023/07/12 08:50:16;;;;;;;9.70;2.95;;;;;;;-144.73;100.00;54309.19;5032459;28;20025;-71
2023/07/12 08:52:44;;;;;;;12.27;3.25;;;;;;;-144.73;100.00;54325.59;5014821;28;20041;-71
2023/07/12 08:55:18;;;;;;;9.35;3.22;;;;;;;-144.73;100.00;54313.28;5034783;28;20038;-70
2023/07/12 08:57:44;;;;;;;9.55;3.00;;;;;;;-144.73;100.00;54296.88;5034647;28;20033;-71
2023/07/12 09:00:18;;;;;;;10.80;3.15;;;;;;;-144.73;100.00;54321.50;5035435;28;20074;-71
2023/07/12 09:02:43;;;;;;;7.35;2.63;;;;;;;-144.73;100.00;54276.34;5033433;28;20067;-71
2023/07/12 09:05:18;;;;;;;8.95;3.13;;;;;;;-144.73;100.00;54333.81;5017342;28;20089;-71
2023/07/12 09:07:51;;;;;;;10.18;3.53;;;;;;;-144.73;100.00;54300.97;5015183;28;20029;-71
2023/07/12 09:10:29;;;;;;;9.45;3.38;;;;;;;-144.73;100.00;54354.34;5035594;28;20051;-71
2023/07/12 09:12:57;;;;;;;14.40;3.15;;;;;;;-144.73;100.00;54313.28;5033436;28;20175;-71
2023/07/12 09:15:34;;;;;;;13.88;3.55;;;;;;;-144.73;100.00;54288.66;5018523;28;20148;-71
2023/07/12 09:18:00;;;;;;;7.18;2.40;;;;;;;-144.73;100.00;54331.75;5034969;28;20037;-71
2023/07/12 09:20:28;;;;;;;15.00;4.25;;;;;;;-144.73;100.00;54321.50;5017860;28;20040;-71
2023/07/12 09:22:54;;;;;;;13.13;2.90;;;;;;;-144.73;100.00;54268.13;5016957;28;20040;-70
2023/07/12 09:25:26;;;;;;;17.20;4.03;;;;;;;-144.73;100.00;54300.97;5016540;28;20033;-71
2023/07/12 09:27:52;;;;;;;15.23;3.05;;;;;;;-144.73;100.00;54317.38;5017007;28;20128;-71
2023/07/12 09:30:23;;;;;;;9.75;2.95;;;;;;;-144.73;100.00;54276.34;5033836;28;20565;-71
2023/07/12 09:32:49;;;;;;;15.30;3.30;;;;;;;-144.73;100.00;54331.75;5031996;28;20034;-71
2023/07/12 09:35:23;;;;;;;12.70;3.40;;;;;;;-144.73;100.00;54337.91;5032229;28;20052;-71
2023/07/12 09:38:01;;;;;;;10.27;2.53;;;;;;;-144.73;100.00;54305.06;5033413;28;20041;-71
2023/07/12 09:40:37;;;;;;;9.32;2.78;;;;;;;-144.73;100.00;54325.59;5017705;28;20039;-72
2023/07/12 09:43:14;;;;;;;9.57;2.92;;;;;;;-144.73;100.00;54303.03;5038632;28;20063;-71
2023/07/12 09:45:42;;;;;;;16.50;3.08;;;;;;;-144.73;100.00;54292.75;5038644;28;20026;-71
2023/07/12 09:48:23;;;;;;;7.65;2.65;;;;;;;-144.73;100.00;54239.41;5032903;28;20070;-71
2023/07/12 09:51:24;;;;;;;;;;;;;;;-144.73;96.35;54300.97;5020957;28;20029;-71
2023/07/12 09:53:59;;;;;;;10.00;2.70;;;;;;;-144.73;98.10;54309.19;5026307;28;20020;-71
2023/07/12 09:56:51;;;;;;;13.38;3.45;;;;;;;-144.73;97.43;54288.66;5020816;28;20303;-72
2023/07/12 09:59:52;;;;;;;6.40;2.47;;;;;;;-144.73;98.15;54325.59;5037492;28;20061;-71
2023/07/12 10:02:39;;;;;;;14.25;4.10;;;;;;;-144.73;99.42;54290.72;5020371;28;20397;-71
2023/07/12 10:05:28;;;;;;;9.32;2.58;;;;;;;-144.73;96.99;54247.59;5031344;28;20079;-71
2023/07/12 10:08:04;;;;;;;10.20;3.05;;;;;;;-144.73;95.93;54239.41;5030964;28;20060;-71
2023/07/12 10:10:34;;;;;;;10.55;2.95;;;;;;;-144.73;92.16;54337.91;5007817;28;20037;-71
2023/07/12 10:13:38;;;;;;;11.18;2.97;;;;;;;-144.73;88.12;54266.06;5012250;28;20514;-70
2023/07/12 10:16:12;;;;;;;13.32;3.78;;;;;;;-144.73;85.62;54342.03;4986383;28;20080;-70
2023/07/12 10:18:38;;;;;;;10.10;3.30;;;;;;;-144.73;86.17;54243.50;5009832;28;20041;-70
2023/07/12 10:21:06;;;;;;;10.82;3.28;;;;;;;-144.73;84.05;54315.34;5018525;28;20080;-70
2023/07/12 10:23:43;;;;;;;11.05;3.22;;;;;;;-144.73;88.88;54329.72;5010864;28;20033;-72
2023/07/12 10:26:12;;;;;;;10.88;3.17;;;;;;;-144.73;88.76;54249.66;5026018;28;20024;-70
2023/07/12 10:28:43;;;;;;;12.25;3.92;;;;;;;-144.73;85.66;54317.38;5029768;28;20622;-70
2023/07/12 10:31:22;;;;;;;11.20;3.75;;;;;;;-144.73;85.49;54255.81;5012747;28;20022;-71
2023/07/12 10:33:50;;;;;;;6.53;2.70;;;;;;;-144.73;82.04;54237.34;5010607;28;20037;-70
2023/07/12 10:36:21;;;;;;;16.45;3.30;;;;;;;-144.73;83.83;54243.50;5029312;28;20105;-71
2023/07/12 10:38:48;;;;;;;9.80;3.13;;;;;;;-144.73;82.70;54235.28;5010860;28;20099;-71
2023/07/12 10:41:21;;;;;;;9.98;3.03;;;;;;;-144.73;83.77;54276.34;5012635;28;20044;-70
2023/07/12 10:43:51;;;;;;;11.73;3.30;;;;;;;-144.73;82.59;54300.97;5009129;28;20041;-72
2023/07/12 10:46:31;;;;;;;12.70;2.97;;;;;;;-144.73;76.59;54309.19;5012147;28;20375;-70
2023/07/12 10:48:57;;;;;;;17.40;3.75;;;;;;;-144.73;76.82;54259.91;5011642;28;20036;-71
2023/07/12 10:51:37;;;;;;;13.75;3.45;;;;;;;-144.73;77.60;54288.66;5009705;28;20026;-70
2023/07/12 10:54:04;;;;;;;12.27;4.18;;;;;;;-144.73;76.66;54247.59;5006261;28;20036;-70
2023/07/12 10:56:35;;;;;;;21.63;4.13;;;;;;;-144.73;73.36;54282.50;5011216;28;20530;-70
2023/07/12 10:59:04;;;;;;;8.43;3.17;;;;;;;-144.73;75.02;54321.50;5012231;28;20036;-70
2023/07/12 11:01:41;;;;;;;13.82;3.60;;;;;;;-144.73;77.14;54259.91;5031080;28;20033;-70
2023/07/12 11:04:27;;;;;;;13.70;3.67;;;;;;;-144.73;75.97;54305.06;5010087;28;20117;-71
2023/07/12 11:06:55;;;;;;;12.18;3.08;;;;;;;-144.73;79.42;54309.19;5029407;28;20040;-70
2023/07/12 11:09:20;;;;;;;6.45;2.97;;;;;;;-144.73;77.79;54268.13;5011793;28;20032;-71